sensor_id;sensor_type;location;lat;lon;timestamp;pressure;altitude;pressure_sealevel;temperature;humidity
43878;BME280;29815;48.184;11.268;2023-12-29T00:02:22;95738.97;;;7.18;100.00
43878;BME280;29815;48.184;11.268;2023-12-29T00:04:51;95727.78;;;7.21;100.00
43878;BME280;29815;48.184;11.268;2023-12-29T00:07:20;95728.84;;;7.20;100.00
43878;BME280;29815;48.184;11.268;2023-12-29T00:09:49;95724.22;;;7.15;100.00
43878;BME280;29815;48.184;11.268;2023-12-29T00:12:19;95718.94;;;7.20;100.00
43878;BME280;29815;48.184;11.268;2023-12-29T00:14:49;95712.41;;;7.11;100.00
43878;BME280;29815;48.184;11.268;2023-12-29T00:17:19;95707.28;;;7.09;100.00
43878;BME280;29815;48.184;11.268;2023-12-29T00:19:48;95715.63;;;7.13;100.00
43878;BME280;29815;48.184;11.268;2023-12-29T00:22:18;95704.63;;;7.09;100.00
43878;BME280;29815;48.184;11.268;2023-12-29T00:24:47;95714.56;;;7.14;100.00
43878;BME280;29815;48.184;11.268;2023-12-29T00:27:16;95709.06;;;7.21;100.00
43878;BME280;29815;48.184;11.268;2023-12-29T00:29:45;95708.09;;;7.10;100.00
43878;BME280;29815;48.184;11.268;2023-12-29T00:32:16;95692.19;;;7.03;100.00
43878;BME280;29815;48.184;11.268;2023-12-29T00:34:46;95692.44;;;7.02;100.00
43878;BME280;29815;48.184;11.268;2023-12-29T00:37:15;95684.31;;;6.97;100.00
43878;BME280;29815;48.184;11.268;2023-12-29T00:39:44;95683.19;;;6.93;100.00
43878;BME280;29815;48.184;11.268;2023-12-29T00:42:13;95679.78;;;6.97;100.00
43878;BME280;29815;48.184;11.268;2023-12-29T00:44:43;95687.25;;;6.95;100.00
43878;BME280;29815;48.184;11.268;2023-12-29T00:47:12;95677.44;;;7.01;100.00
43878;BME280;29815;48.184;11.268;2023-12-29T00:49:43;95678.75;;;6.98;100.00
43878;BME280;29815;48.184;11.268;2023-12-29T00:52:13;95671.94;;;7.07;100.00
43878;BME280;29815;48.184;11.268;2023-12-29T00:54:42;95670.31;;;7.06;100.00
43878;BME280;29815;48.184;11.268;2023-12-29T00:57:12;95671.03;;;7.02;100.00
43878;BME280;29815;48.184;11.268;2023-12-29T00:59:42;95656.13;;;7.06;100.00
43878;BME280;29815;48.184;11.268;2023-12-29T01:02:13;95667.31;;;7.03;100.00
43878;BME280;29815;48.184;11.268;2023-12-29T01:04:44;95668.13;;;7.03;100.00
43878;BME280;29815;48.184;11.268;2023-12-29T01:07:13;95669.25;;;7.07;100.00
43878;BME280;29815;48.184;11.268;2023-12-29T01:09:43;95669.66;;;6.99;100.00
43878;BME280;29815;48.184;11.268;2023-12-29T01:12:12;95679.53;;;6.99;100.00
43878;BME280;29815;48.184;11.268;2023-12-29T01:14:42;95676.53;;;6.95;100.00
43878;BME280;29815;48.184;11.268;2023-12-29T01:17:12;95671.69;;;7.09;100.00
43878;BME280;29815;48.184;11.268;2023-12-29T01:19:41;95667.38;;;7.08;100.00
43878;BME280;29815;48.184;11.268;2023-12-29T01:22:12;95667.88;;;7.05;100.00
43878;BME280;29815;48.184;11.268;2023-12-29T01:24:41;95660.47;;;7.12;100.00
43878;BME280;29815;48.184;11.268;2023-12-29T01:27:13;95654.06;;;7.13;100.00
43878;BME280;29815;48.184;11.268;2023-12-29T01:29:42;95655.75;;;7.19;100.00
43878;BME280;29815;48.184;11.268;2023-12-29T01:32:12;95657.38;;;7.20;100.00
43878;BME280;29815;48.184;11.268;2023-12-29T01:34:41;95657.13;;;7.22;100.00
43878;BME280;29815;48.184;11.268;2023-12-29T01:37:12;95662.50;;;7.22;100.00
43878;BME280;29815;48.184;11.268;2023-12-29T01:39:41;95664.94;;;7.23;100.00
43878;BME280;29815;48.184;11.268;2023-12-29T01:42:11;95662.31;;;7.28;100.00
43878;BME280;29815;48.184;11.268;2023-12-29T01:44:40;95677.16;;;7.36;100.00
43878;BME280;29815;48.184;11.268;2023-12-29T01:47:13;95681.50;;;7.42;100.00
43878;BME280;29815;48.184;11.268;2023-12-29T01:49:44;95673.56;;;7.47;100.00
43878;BME280;29815;48.184;11.268;2023-12-29T01:52:16;95673.38;;;7.54;100.00
43878;BME280;29815;48.184;11.268;2023-12-29T01:54:48;95667.59;;;7.62;100.00
43878;BME280;29815;48.184;11.268;2023-12-29T01:57:18;95669.59;;;7.71;100.00
43878;BME280;29815;48.184;11.268;2023-12-29T01:59:49;95661.56;;;7.71;100.00
43878;BME280;29815;48.184;11.268;2023-12-29T02:02:18;95662.34;;;7.72;100.00
43878;BME280;29815;48.184;11.268;2023-12-29T02:04:47;95660.75;;;7.71;100.00
43878;BME280;29815;48.184;11.268;2023-12-29T02:07:18;95658.88;;;7.71;100.00
43878;BME280;29815;48.184;11.268;2023-12-29T02:09:49;95657.50;;;7.69;100.00
43878;BME280;29815;48.184;11.268;2023-12-29T02:12:19;95659.38;;;7.68;100.00
43878;BME280;29815;48.184;11.268;2023-12-29T02:14:49;95664.47;;;7.70;100.00
43878;BME280;29815;48.184;11.268;2023-12-29T02:17:31;95662.28;;;7.67;100.00
43878;BME280;29815;48.184;11.268;2023-12-29T02:20:04;95663.00;;;7.57;100.00
43878;BME280;29815;48.184;11.268;2023-12-29T02:22:35;95656.44;;;7.48;100.00
43878;BME280;29815;48.184;11.268;2023-12-29T02:25:06;95645.22;;;7.51;100.00
43878;BME280;29815;48.184;11.268;2023-12-29T02:27:41;95658.06;;;7.49;100.00
43878;BME280;29815;48.184;11.268;2023-12-29T02:30:18;95650.09;;;7.54;100.00
43878;BME280;29815;48.184;11.268;2023-12-29T02:32:55;95644.41;;;7.51;100.00
43878;BME280;29815;48.184;11.268;2023-12-29T02:35:28;95639.69;;;7.58;100.00
43878;BME280;29815;48.184;11.268;2023-12-29T02:38:01;95645.88;;;7.58;100.00
43878;BME280;29815;48.184;11.268;2023-12-29T02:40:35;95638.75;;;7.47;100.00
43878;BME280;29815;48.184;11.268;2023-12-29T02:43:05;95637.81;;;7.58;100.00
43878;BME280;29815;48.184;11.268;2023-12-29T02:45:34;95638.47;;;7.65;100.00
43878;BME280;29815;48.184;11.268;2023-12-29T02:48:05;95628.72;;;7.59;100.00
43878;BME280;29815;48.184;11.268;2023-12-29T02:50:35;95629.06;;;7.63;100.00
43878;BME280;29815;48.184;11.268;2023-12-29T02:53:04;95628.09;;;7.74;100.00
43878;BME280;29815;48.184;11.268;2023-12-29T02:55:35;95613.72;;;7.80;100.00
43878;BME280;29815;48.184;11.268;2023-12-29T02:58:05;95609.97;;;7.81;100.00
43878;BME280;29815;48.184;11.268;2023-12-29T03:00:34;95607.03;;;7.82;99.30
43878;BME280;29815;48.184;11.268;2023-12-29T03:03:04;95610.22;;;7.79;99.37
43878;BME280;29815;48.184;11.268;2023-12-29T03:05:33;95612.84;;;7.74;98.97
43878;BME280;29815;48.184;11.268;2023-12-29T03:08:03;95605.66;;;7.80;97.31
43878;BME280;29815;48.184;11.268;2023-12-29T03:10:33;95599.13;;;7.71;98.74
43878;BME280;29815;48.184;11.268;2023-12-29T03:13:04;95607.41;;;7.69;96.79
43878;BME280;29815;48.184;11.268;2023-12-29T03:15:33;95606.94;;;7.51;98.46
43878;BME280;29815;48.184;11.268;2023-12-29T03:18:04;95600.94;;;7.43;99.10
43878;BME280;29815;48.184;11.268;2023-12-29T03:20:34;95607.59;;;7.41;98.31
43878;BME280;29815;48.184;11.268;2023-12-29T03:23:04;95605.53;;;7.26;99.52
43878;BME280;29815;48.184;11.268;2023-12-29T03:25:33;95605.38;;;7.33;98.52
43878;BME280;29815;48.184;11.268;2023-12-29T03:28:04;95605.72;;;7.20;98.95
43878;BME280;29815;48.184;11.268;2023-12-29T03:30:34;95601.59;;;7.12;99.53
43878;BME280;29815;48.184;11.268;2023-12-29T03:33:05;95598.47;;;6.98;100.00
43878;BME280;29815;48.184;11.268;2023-12-29T03:35:34;95596.28;;;6.95;100.00
43878;BME280;29815;48.184;11.268;2023-12-29T03:38:03;95600.97;;;6.88;100.00
43878;BME280;29815;48.184;11.268;2023-12-29T03:40:34;95600.13;;;6.83;100.00
43878;BME280;29815;48.184;11.268;2023-12-29T03:43:04;95605.03;;;6.91;100.00
43878;BME280;29815;48.184;11.268;2023-12-29T03:45:34;95606.16;;;6.95;100.00
43878;BME280;29815;48.184;11.268;2023-12-29T03:48:04;95601.13;;;6.98;100.00
43878;BME280;29815;48.184;11.268;2023-12-29T03:50:37;95603.28;;;7.18;96.80
43878;BME280;29815;48.184;11.268;2023-12-29T03:53:06;95602.38;;;7.29;96.92
43878;BME280;29815;48.184;11.268;2023-12-29T03:55:35;95588.00;;;7.35;94.67
43878;BME280;29815;48.184;11.268;2023-12-29T03:58:06;95589.72;;;7.46;94.15
43878;BME280;29815;48.184;11.268;2023-12-29T04:00:36;95586.94;;;7.58;92.77
43878;BME280;29815;48.184;11.268;2023-12-29T04:03:10;95582.00;;;7.72;91.13
43878;BME280;29815;48.184;11.268;2023-12-29T04:05:39;95583.94;;;7.76;91.47
43878;BME280;29815;48.184;11.268;2023-12-29T04:08:09;95583.72;;;7.83;89.82
43878;BME280;29815;48.184;11.268;2023-12-29T04:10:38;95581.94;;;7.89;92.16
43878;BME280;29815;48.184;11.268;2023-12-29T04:13:09;95572.31;;;7.93;90.98
43878;BME280;29815;48.184;11.268;2023-12-29T04:15:38;95582.50;;;7.96;90.19
43878;BME280;29815;48.184;11.268;2023-12-29T04:18:07;95588.44;;;7.98;89.15
43878;BME280;29815;48.184;11.268;2023-12-29T04:20:37;95579.25;;;8.15;86.59
43878;BME280;29815;48.184;11.268;2023-12-29T04:23:07;95577.19;;;8.28;87.82
43878;BME280;29815;48.184;11.268;2023-12-29T04:25:37;95564.69;;;8.33;85.86
43878;BME280;29815;48.184;11.268;2023-12-29T04:28:07;95568.91;;;8.29;86.65
43878;BME280;29815;48.184;11.268;2023-12-29T04:30:38;95571.16;;;8.37;84.96
43878;BME280;29815;48.184;11.268;2023-12-29T04:33:08;95561.84;;;8.50;83.31
43878;BME280;29815;48.184;11.268;2023-12-29T04:35:37;95570.75;;;8.56;84.20
43878;BME280;29815;48.184;11.268;2023-12-29T04:38:06;95568.97;;;8.66;83.42
43878;BME280;29815;48.184;11.268;2023-12-29T04:40:36;95567.88;;;8.62;85.53
43878;BME280;29815;48.184;11.268;2023-12-29T04:43:05;95565.22;;;8.67;84.23
43878;BME280;29815;48.184;11.268;2023-12-29T04:45:36;95566.09;;;8.78;86.13
43878;BME280;29815;48.184;11.268;2023-12-29T04:48:06;95560.72;;;8.78;87.04
43878;BME280;29815;48.184;11.268;2023-12-29T04:50:35;95560.84;;;8.93;85.33
43878;BME280;29815;48.184;11.268;2023-12-29T04:53:05;95571.88;;;8.97;84.94
43878;BME280;29815;48.184;11.268;2023-12-29T04:55:34;95561.34;;;8.90;87.72
43878;BME280;29815;48.184;11.268;2023-12-29T04:58:04;95568.34;;;8.91;87.37
43878;BME280;29815;48.184;11.268;2023-12-29T05:00:34;95572.44;;;8.99;86.94
43878;BME280;29815;48.184;11.268;2023-12-29T05:03:05;95564.38;;;9.04;88.27
43878;BME280;29815;48.184;11.268;2023-12-29T05:05:35;95563.84;;;9.02;86.32
43878;BME280;29815;48.184;11.268;2023-12-29T05:08:04;95578.34;;;9.01;85.87
43878;BME280;29815;48.184;11.268;2023-12-29T05:10:35;95567.59;;;9.01;86.67
43878;BME280;29815;48.184;11.268;2023-12-29T05:13:06;95566.81;;;9.05;86.09
43878;BME280;29815;48.184;11.268;2023-12-29T05:15:36;95556.63;;;9.07;86.26
43878;BME280;29815;48.184;11.268;2023-12-29T05:18:06;95567.63;;;9.06;86.05
43878;BME280;29815;48.184;11.268;2023-12-29T05:20:35;95561.91;;;8.92;87.30
43878;BME280;29815;48.184;11.268;2023-12-29T05:23:05;95555.69;;;8.87;88.02
43878;BME280;29815;48.184;11.268;2023-12-29T05:25:35;95564.81;;;8.86;88.85
43878;BME280;29815;48.184;11.268;2023-12-29T05:28:04;95569.38;;;8.85;88.48
43878;BME280;29815;48.184;11.268;2023-12-29T05:30:34;95572.59;;;8.87;89.71
43878;BME280;29815;48.184;11.268;2023-12-29T05:33:05;95574.00;;;8.95;88.80
43878;BME280;29815;48.184;11.268;2023-12-29T05:35:35;95573.94;;;8.85;88.42
43878;BME280;29815;48.184;11.268;2023-12-29T05:38:04;95576.06;;;8.82;88.56
43878;BME280;29815;48.184;11.268;2023-12-29T05:40:34;95580.66;;;8.87;88.54
43878;BME280;29815;48.184;11.268;2023-12-29T05:43:03;95572.94;;;8.96;86.95
43878;BME280;29815;48.184;11.268;2023-12-29T05:45:33;95572.09;;;8.90;86.50
43878;BME280;29815;48.184;11.268;2023-12-29T05:48:02;95579.34;;;8.90;86.94
43878;BME280;29815;48.184;11.268;2023-12-29T05:50:34;95572.09;;;8.90;88.03
43878;BME280;29815;48.184;11.268;2023-12-29T05:53:04;95583.56;;;8.80;87.00
43878;BME280;29815;48.184;11.268;2023-12-29T05:55:33;95582.50;;;8.81;88.06
43878;BME280;29815;48.184;11.268;2023-12-29T06:00:01;95584.56;;;8.69;89.96
43878;BME280;29815;48.184;11.268;2023-12-29T06:02:39;95586.19;;;8.75;87.91
43878;BME280;29815;48.184;11.268;2023-12-29T06:05:10;95575.25;;;8.82;87.53
43878;BME280;29815;48.184;11.268;2023-12-29T06:07:40;95582.50;;;8.81;88.57
43878;BME280;29815;48.184;11.268;2023-12-29T06:10:11;95587.34;;;8.85;87.42
43878;BME280;29815;48.184;11.268;2023-12-29T06:12:41;95592.97;;;8.83;88.56
43878;BME280;29815;48.184;11.268;2023-12-29T06:15:13;95597.28;;;8.84;89.12
43878;BME280;29815;48.184;11.268;2023-12-29T06:17:44;95590.78;;;8.80;89.02
43878;BME280;29815;48.184;11.268;2023-12-29T06:20:14;95592.94;;;8.78;91.19
43878;BME280;29815;48.184;11.268;2023-12-29T06:22:43;95598.34;;;8.83;91.23
43878;BME280;29815;48.184;11.268;2023-12-29T06:25:13;95605.16;;;8.96;89.79
43878;BME280;29815;48.184;11.268;2023-12-29T06:27:43;95602.47;;;8.96;90.29
43878;BME280;29815;48.184;11.268;2023-12-29T06:30:14;95594.16;;;8.97;90.40
43878;BME280;29815;48.184;11.268;2023-12-29T06:32:44;95597.09;;;8.96;91.06
43878;BME280;29815;48.184;11.268;2023-12-29T06:35:14;95595.69;;;8.88;92.32
43878;BME280;29815;48.184;11.268;2023-12-29T06:37:43;95594.13;;;8.92;94.62
43878;BME280;29815;48.184;11.268;2023-12-29T06:40:12;95591.47;;;8.97;95.95
43878;BME280;29815;48.184;11.268;2023-12-29T06:42:42;95589.09;;;9.06;93.83
43878;BME280;29815;48.184;11.268;2023-12-29T06:45:11;95590.19;;;9.10;95.74
43878;BME280;29815;48.184;11.268;2023-12-29T06:47:42;95587.00;;;9.13;99.40
43878;BME280;29815;48.184;11.268;2023-12-29T06:50:11;95590.44;;;9.08;99.49
43878;BME280;29815;48.184;11.268;2023-12-29T06:52:41;95598.53;;;9.13;100.00
43878;BME280;29815;48.184;11.268;2023-12-29T06:55:11;95610.38;;;9.18;100.00
43878;BME280;29815;48.184;11.268;2023-12-29T06:57:40;95598.56;;;9.19;100.00
43878;BME280;29815;48.184;11.268;2023-12-29T07:00:11;95599.13;;;9.21;100.00
43878;BME280;29815;48.184;11.268;2023-12-29T07:02:42;95599.16;;;9.26;100.00
43878;BME280;29815;48.184;11.268;2023-12-29T07:05:12;95604.78;;;9.24;100.00
43878;BME280;29815;48.184;11.268;2023-12-29T07:07:41;95616.91;;;9.27;100.00
43878;BME280;29815;48.184;11.268;2023-12-29T07:10:12;95619.06;;;9.30;100.00
43878;BME280;29815;48.184;11.268;2023-12-29T07:12:42;95616.09;;;9.31;100.00
43878;BME280;29815;48.184;11.268;2023-12-29T07:15:11;95627.63;;;9.27;100.00
43878;BME280;29815;48.184;11.268;2023-12-29T07:17:43;95627.38;;;9.28;100.00
43878;BME280;29815;48.184;11.268;2023-12-29T07:20:13;95614.72;;;9.24;100.00
43878;BME280;29815;48.184;11.268;2023-12-29T07:22:42;95618.22;;;9.24;100.00
43878;BME280;29815;48.184;11.268;2023-12-29T07:25:13;95621.38;;;9.16;100.00
43878;BME280;29815;48.184;11.268;2023-12-29T07:27:43;95628.88;;;9.14;100.00
43878;BME280;29815;48.184;11.268;2023-12-29T07:30:13;95615.72;;;9.12;100.00
43878;BME280;29815;48.184;11.268;2023-12-29T07:32:45;95623.78;;;9.12;100.00
43878;BME280;29815;48.184;11.268;2023-12-29T07:35:14;95617.03;;;9.10;100.00
43878;BME280;29815;48.184;11.268;2023-12-29T07:37:45;95618.09;;;9.09;100.00
43878;BME280;29815;48.184;11.268;2023-12-29T07:40:15;95625.09;;;9.10;100.00
43878;BME280;29815;48.184;11.268;2023-12-29T07:42:45;95623.75;;;9.07;100.00
43878;BME280;29815;48.184;11.268;2023-12-29T07:45:18;95617.00;;;9.05;100.00
43878;BME280;29815;48.184;11.268;2023-12-29T07:47:49;95618.09;;;9.09;100.00
43878;BME280;29815;48.184;11.268;2023-12-29T07:50:17;95619.47;;;9.11;100.00
43878;BME280;29815;48.184;11.268;2023-12-29T07:52:47;95621.91;;;9.13;100.00
43878;BME280;29815;48.184;11.268;2023-12-29T07:55:16;95623.47;;;9.09;100.00
43878;BME280;29815;48.184;11.268;2023-12-29T07:57:46;95622.66;;;9.08;100.00
43878;BME280;29815;48.184;11.268;2023-12-29T08:00:16;95624.00;;;9.06;100.00
43878;BME280;29815;48.184;11.268;2023-12-29T08:02:45;95617.31;;;9.08;100.00
43878;BME280;29815;48.184;11.268;2023-12-29T08:05:16;95626.72;;;9.11;100.00
43878;BME280;29815;48.184;11.268;2023-12-29T08:07:45;95629.34;;;9.01;100.00
43878;BME280;29815;48.184;11.268;2023-12-29T08:10:15;95615.38;;;9.04;100.00
43878;BME280;29815;48.184;11.268;2023-12-29T08:12:44;95619.94;;;9.03;100.00
43878;BME280;29815;48.184;11.268;2023-12-29T08:15:14;95627.44;;;8.96;100.00
43878;BME280;29815;48.184;11.268;2023-12-29T08:17:43;95628.75;;;8.94;100.00
43878;BME280;29815;48.184;11.268;2023-12-29T08:20:12;95624.16;;;8.89;100.00
43878;BME280;29815;48.184;11.268;2023-12-29T08:22:43;95626.31;;;8.92;100.00
43878;BME280;29815;48.184;11.268;2023-12-29T08:25:12;95630.66;;;8.98;100.00
43878;BME280;29815;48.184;11.268;2023-12-29T08:27:42;95639.44;;;8.89;100.00
43878;BME280;29815;48.184;11.268;2023-12-29T08:30:12;95630.06;;;8.91;100.00
43878;BME280;29815;48.184;11.268;2023-12-29T08:32:42;95639.34;;;8.78;100.00
43878;BME280;29815;48.184;11.268;2023-12-29T08:35:11;95631.66;;;8.87;100.00
43878;BME280;29815;48.184;11.268;2023-12-29T08:37:42;95626.59;;;8.91;100.00
43878;BME280;29815;48.184;11.268;2023-12-29T08:40:12;95633.88;;;8.95;100.00
43878;BME280;29815;48.184;11.268;2023-12-29T08:42:41;95632.31;;;9.04;100.00
43878;BME280;29815;48.184;11.268;2023-12-29T08:45:11;95632.03;;;9.01;100.00
43878;BME280;29815;48.184;11.268;2023-12-29T08:47:40;95644.41;;;9.02;100.00
43878;BME280;29815;48.184;11.268;2023-12-29T08:50:09;95643.84;;;9.05;100.00
43878;BME280;29815;48.184;11.268;2023-12-29T08:52:38;95655.16;;;9.07;100.00
43878;BME280;29815;48.184;11.268;2023-12-29T08:55:09;95648.66;;;9.03;100.00
43878;BME280;29815;48.184;11.268;2023-12-29T08:57:39;95661.56;;;9.01;100.00
43878;BME280;29815;48.184;11.268;2023-12-29T09:00:09;95648.66;;;9.03;100.00
43878;BME280;29815;48.184;11.268;2023-12-29T09:02:38;95651.34;;;8.98;100.00
43878;BME280;29815;48.184;11.268;2023-12-29T09:05:08;95655.41;;;9.05;100.00
43878;BME280;29815;48.184;11.268;2023-12-29T09:07:37;95660.50;;;9.07;100.00
43878;BME280;29815;48.184;11.268;2023-12-29T09:10:08;95660.56;;;9.12;100.00
43878;BME280;29815;48.184;11.268;2023-12-29T09:12:39;95654.63;;;9.10;100.00
43878;BME280;29815;48.184;11.268;2023-12-29T09:15:08;95652.03;;;9.20;100.00
43878;BME280;29815;48.184;11.268;2023-12-29T09:17:38;95655.53;;;9.21;100.00
43878;BME280;29815;48.184;11.268;2023-12-29T09:20:08;95658.53;;;9.29;100.00
43878;BME280;29815;48.184;11.268;2023-12-29T09:22:39;95648.34;;;9.36;100.00
43878;BME280;29815;48.184;11.268;2023-12-29T09:25:09;95643.25;;;9.30;100.00
43878;BME280;29815;48.184;11.268;2023-12-29T09:27:39;95648.66;;;9.40;100.00
43878;BME280;29815;48.184;11.268;2023-12-29T09:30:09;95647.03;;;9.39;100.00
43878;BME280;29815;48.184;11.268;2023-12-29T09:32:39;95655.69;;;9.46;100.00
43878;BME280;29815;48.184;11.268;2023-12-29T09:35:09;95653.56;;;9.53;100.00
43878;BME280;29815;48.184;11.268;2023-12-29T09:37:38;95649.53;;;9.50;100.00
43878;BME280;29815;48.184;11.268;2023-12-29T09:40:10;95649.81;;;9.59;100.00
43878;BME280;29815;48.184;11.268;2023-12-29T09:42:40;95637.97;;;9.50;100.00
43878;BME280;29815;48.184;11.268;2023-12-29T09:45:12;95640.19;;;9.63;100.00
43878;BME280;29815;48.184;11.268;2023-12-29T09:47:43;95630.25;;;9.69;100.00
43878;BME280;29815;48.184;11.268;2023-12-29T09:50:13;95640.22;;;9.73;100.00
43878;BME280;29815;48.184;11.268;2023-12-29T09:52:43;95638.66;;;9.77;100.00
43878;BME280;29815;48.184;11.268;2023-12-29T09:55:13;95646.19;;;9.80;100.00
43878;BME280;29815;48.184;11.268;2023-12-29T09:57:43;95645.38;;;9.80;100.00
43878;BME280;29815;48.184;11.268;2023-12-29T10:00:13;95639.22;;;9.84;100.00
43878;BME280;29815;48.184;11.268;2023-12-29T10:02:44;95635.19;;;9.82;100.00
43878;BME280;29815;48.184;11.268;2023-12-29T10:05:15;95630.06;;;9.85;100.00
43878;BME280;29815;48.184;11.268;2023-12-29T10:07:44;95636.50;;;9.79;100.00
43878;BME280;29815;48.184;11.268;2023-12-29T10:10:16;95616.63;;;9.80;100.00
43878;BME280;29815;48.184;11.268;2023-12-29T10:12:47;95620.66;;;9.83;100.00
43878;BME280;29815;48.184;11.268;2023-12-29T10:15:19;95615.81;;;9.85;100.00
43878;BME280;29815;48.184;11.268;2023-12-29T10:17:52;95612.59;;;9.88;100.00
43878;BME280;29815;48.184;11.268;2023-12-29T10:20:33;95617.41;;;9.76;100.00
43878;BME280;29815;48.184;11.268;2023-12-29T10:23:08;95609.91;;;9.83;100.00
43878;BME280;29815;48.184;11.268;2023-12-29T10:25:42;95607.75;;;9.85;100.00
43878;BME280;29815;48.184;11.268;2023-12-29T10:28:11;95612.88;;;9.81;100.00
43878;BME280;29815;48.184;11.268;2023-12-29T10:30:42;95591.34;;;9.81;100.00
43878;BME280;29815;48.184;11.268;2023-12-29T10:33:18;95590.56;;;9.81;100.00
43878;BME280;29815;48.184;11.268;2023-12-29T10:35:58;95592.69;;;9.79;100.00
43878;BME280;29815;48.184;11.268;2023-12-29T10:38:31;95601.03;;;9.88;100.00
43878;BME280;29815;48.184;11.268;2023-12-29T10:41:11;95583.56;;;9.80;100.00
43878;BME280;29815;48.184;11.268;2023-12-29T10:43:43;95582.50;;;9.96;100.00
43878;BME280;29815;48.184;11.268;2023-12-29T10:46:15;95594.88;;;9.92;100.00
43878;BME280;29815;48.184;11.268;2023-12-29T10:48:44;95586.28;;;9.95;100.00
43878;BME280;29815;48.184;11.268;2023-12-29T10:51:14;95584.41;;;10.01;100.00
43878;BME280;29815;48.184;11.268;2023-12-29T10:53:44;95565.63;;;10.06;100.00
43878;BME280;29815;48.184;11.268;2023-12-29T10:56:24;95578.25;;;10.05;100.00
43878;BME280;29815;48.184;11.268;2023-12-29T10:58:57;95577.72;;;10.08;100.00
43878;BME280;29815;48.184;11.268;2023-12-29T11:01:28;95584.16;;;10.12;100.00
43878;BME280;29815;48.184;11.268;2023-12-29T11:04:01;95573.16;;;10.09;100.00
43878;BME280;29815;48.184;11.268;2023-12-29T11:06:40;95567.75;;;10.14;100.00
43878;BME280;29815;48.184;11.268;2023-12-29T11:09:11;95569.38;;;10.15;100.00
43878;BME280;29815;48.184;11.268;2023-12-29T11:11:42;95558.38;;;10.11;100.00
43878;BME280;29815;48.184;11.268;2023-12-29T11:14:12;95558.09;;;10.18;100.00
43878;BME280;29815;48.184;11.268;2023-12-29T11:16:41;95556.19;;;10.13;100.00
43878;BME280;29815;48.184;11.268;2023-12-29T11:19:12;95560.78;;;10.18;100.00
43878;BME280;29815;48.184;11.268;2023-12-29T11:21:42;95552.50;;;10.30;100.00
43878;BME280;29815;48.184;11.268;2023-12-29T11:24:11;95548.19;;;10.29;100.00
43878;BME280;29815;48.184;11.268;2023-12-29T11:26:51;95544.97;;;10.32;100.00
43878;BME280;29815;48.184;11.268;2023-12-29T11:29:20;95540.66;;;10.36;100.00
43878;BME280;29815;48.184;11.268;2023-12-29T11:31:49;95538.25;;;10.39;100.00
43878;BME280;29815;48.184;11.268;2023-12-29T11:34:23;95530.44;;;10.38;100.00
43878;BME280;29815;48.184;11.268;2023-12-29T11:36:57;95536.09;;;10.36;100.00
43878;BME280;29815;48.184;11.268;2023-12-29T11:39:38;95528.28;;;10.45;100.00
43878;BME280;29815;48.184;11.268;2023-12-29T11:42:14;95525.59;;;10.50;100.00
43878;BME280;29815;48.184;11.268;2023-12-29T11:44:48;95539.84;;;10.50;100.00
43878;BME280;29815;48.184;11.268;2023-12-29T11:47:34;95517.78;;;10.59;100.00
43878;BME280;29815;48.184;11.268;2023-12-29T11:50:05;95531.25;;;10.64;100.00
43878;BME280;29815;48.184;11.268;2023-12-29T11:52:35;95523.44;;;10.62;100.00
43878;BME280;29815;48.184;11.268;2023-12-29T11:55:08;95513.50;;;10.63;100.00
43878;BME280;29815;48.184;11.268;2023-12-29T11:57:40;95513.19;;;10.69;100.00
43878;BME280;29815;48.184;11.268;2023-12-29T12:00:10;95509.41;;;10.75;100.00
43878;BME280;29815;48.184;11.268;2023-12-29T12:02:40;95517.22;;;10.82;100.00
43878;BME280;29815;48.184;11.268;2023-12-29T12:05:10;95523.94;;;10.79;100.00
43878;BME280;29815;48.184;11.268;2023-12-29T12:07:57;95515.06;;;10.79;100.00
43878;BME280;29815;48.184;11.268;2023-12-29T12:10:29;95524.22;;;10.78;100.00
43878;BME280;29815;48.184;11.268;2023-12-29T12:13:02;95508.59;;;10.75;100.00
43878;BME280;29815;48.184;11.268;2023-12-29T12:15:32;95504.03;;;10.75;100.00
43878;BME280;29815;48.184;11.268;2023-12-29T12:18:03;95502.16;;;10.76;100.00
43878;BME280;29815;48.184;11.268;2023-12-29T12:20:36;95499.19;;;10.77;100.00
43878;BME280;29815;48.184;11.268;2023-12-29T12:23:09;95497.84;;;10.85;100.00
43878;BME280;29815;48.184;11.268;2023-12-29T12:25:40;95497.03;;;10.84;100.00
43878;BME280;29815;48.184;11.268;2023-12-29T12:28:13;95500.53;;;10.85;100.00
43878;BME280;29815;48.184;11.268;2023-12-29T12:30:43;95500.53;;;10.90;100.00
43878;BME280;29815;48.184;11.268;2023-12-29T12:33:13;95495.94;;;10.85;100.00
43878;BME280;29815;48.184;11.268;2023-12-29T12:35:42;95491.91;;;10.83;100.00
43878;BME280;29815;48.184;11.268;2023-12-29T12:38:15;95488.69;;;10.86;100.00
43878;BME280;29815;48.184;11.268;2023-12-29T12:40:49;95498.91;;;10.79;100.00
43878;BME280;29815;48.184;11.268;2023-12-29T12:43:20;95499.47;;;10.76;100.00
43878;BME280;29815;48.184;11.268;2023-12-29T12:45:53;95498.66;;;10.80;100.00
43878;BME280;29815;48.184;11.268;2023-12-29T12:48:32;95505.66;;;10.76;100.00
43878;BME280;29815;48.184;11.268;2023-12-29T12:51:04;95501.34;;;10.75;100.00
43878;BME280;29815;48.184;11.268;2023-12-29T12:53:34;95495.97;;;10.75;100.00
43878;BME280;29815;48.184;11.268;2023-12-29T12:56:05;95496.00;;;10.65;100.00
43878;BME280;29815;48.184;11.268;2023-12-29T12:58:37;95498.66;;;10.70;100.00
43878;BME280;29815;48.184;11.268;2023-12-29T13:01:07;95492.50;;;10.65;100.00
43878;BME280;29815;48.184;11.268;2023-12-29T13:03:38;95496.00;;;10.60;100.00
43878;BME280;29815;48.184;11.268;2023-12-29T13:06:07;95493.81;;;10.67;100.00
43878;BME280;29815;48.184;11.268;2023-12-29T13:08:37;95506.47;;;10.67;100.00
43878;BME280;29815;48.184;11.268;2023-12-29T13:11:10;95502.72;;;10.58;100.00